Terminal Aerodrome Forecast
Issued by NWS

Current Version | Previous Version | Graphics & Text | Print | Product List | Glossary On
Versions: 1 2 3 4 5 6 7 8 9 10 11 12 13 14 15 16 17 18 19 20 21 22 23 24 25 26
000
FTUS41 KILN 261700
TAFLUK
TAF
KLUK 261720Z 2618/2718 19011G16KT P6SM SCT200
     FM262300 18005KT P6SM SCT200
     FM270300 17005KT P6SM BKN035
     FM271000 17005KT P6SM BKN060
     FM271700 20011KT P6SM VCSH OVC045=

USA.gov is the U.S. government's official web portal to all federal, state and local government web resources and services.